createdAt,value
2022-08-22T00:02:52.284Z,87
2022-08-22T00:03:05.615Z,82
2022-08-22T00:03:05.641Z,84
2022-08-22T00:04:13.485Z,87
2022-08-22T00:10:02.421Z,90
2022-08-22T00:15:42.816Z,90
2022-08-22T00:20:55.571Z,97
2022-08-22T00:26:32.127Z,100
2022-08-22T00:32:19.359Z,94
2022-08-22T00:37:43.976Z,98
2022-08-22T00:43:29.606Z,100
2022-08-22T00:49:01.363Z,100
2022-08-22T00:54:35.829Z,100
2022-08-22T01:00:25.619Z,100
2022-08-22T01:05:59.509Z,100
2022-08-22T01:11:21.931Z,100
2022-08-22T01:17:05.913Z,100
2022-08-22T01:22:35.263Z,100
2022-08-22T01:28:00.853Z,100
2022-08-22T01:33:36.108Z,100
2022-08-22T01:39:09.041Z,100
2022-08-22T01:44:44.382Z,100
2022-08-22T01:50:38.575Z,100
2022-08-22T01:56:18.260Z,100
2022-08-22T02:01:54.863Z,100
2022-08-22T02:07:04.471Z,100
2022-08-22T02:13:05.493Z,100
2022-08-22T02:18:18.431Z,100
2022-08-22T02:23:52.130Z,100
2022-08-22T02:29:27.875Z,100
2022-08-22T02:35:23.339Z,100
2022-08-22T02:40:39.761Z,100
2022-08-22T02:46:25.759Z,100
2022-08-22T02:52:04.462Z,100
2022-08-22T02:57:39.893Z,100
2022-08-22T03:03:10.207Z,100
2022-08-22T03:08:35.543Z,100
2022-08-22T03:14:09.732Z,100
2022-08-22T03:19:51.100Z,100
2022-08-22T03:25:17.215Z,100
2022-08-22T03:30:58.241Z,100
2022-08-22T03:36:18.735Z,100
2022-08-22T03:41:55.918Z,100
2022-08-22T03:47:46.258Z,100
2022-08-22T03:53:06.418Z,100
2022-08-22T03:58:32.725Z,100
2022-08-22T04:04:19.952Z,100
2022-08-22T04:09:57.748Z,100
2022-08-22T04:15:33.312Z,100
2022-08-22T04:20:56.352Z,100
2022-08-22T04:26:25.720Z,100
2022-08-22T04:31:58.016Z,100
2022-08-22T04:37:58.805Z,100
2022-08-22T04:43:22.832Z,100
2022-08-22T04:48:59.650Z,100
2022-08-22T04:54:30.173Z,100
2022-08-22T05:00:00.781Z,100
2022-08-22T05:05:38.429Z,100
2022-08-22T05:11:24.716Z,100
2022-08-22T05:16:41.811Z,100
2022-08-22T05:22:30.028Z,100
2022-08-22T05:27:46.035Z,100
2022-08-22T05:33:43.852Z,100
2022-08-22T05:39:00.889Z,100
2022-08-22T05:44:48.265Z,100
2022-08-22T05:50:18.434Z,100
2022-08-22T05:55:44.061Z,100
2022-08-22T06:01:17.873Z,100
2022-08-22T06:06:50.100Z,100
2022-08-22T06:12:24.469Z,100
2022-08-22T06:18:08.920Z,100
2022-08-22T06:23:36.542Z,100
2022-08-22T06:29:37.926Z,100
2022-08-22T06:35:09.960Z,100
2022-08-22T06:40:26.742Z,100
2022-08-22T06:46:20.792Z,100
2022-08-22T06:51:35.646Z,100
2022-08-22T06:57:17.463Z,100
2022-08-22T07:02:53.568Z,100
2022-08-22T07:08:39.228Z,100
2022-08-22T07:14:06.898Z,100
2022-08-22T07:19:44.216Z,100
2022-08-22T07:25:33.805Z,100
2022-08-22T07:31:13.641Z,100
2022-08-22T07:36:23.382Z,100
2022-08-22T07:42:14.119Z,100
2022-08-22T07:48:01.787Z,100
2022-08-22T07:53:19.972Z,100
2022-08-22T07:59:14.147Z,100
2022-08-22T08:04:40.118Z,100
2022-08-22T08:10:19.056Z,100
2022-08-22T08:15:51.569Z,100
2022-08-22T08:21:22.784Z,100
2022-08-22T08:27:00.709Z,100
2022-08-22T08:32:43.918Z,100
2022-08-22T08:38:24.645Z,100
2022-08-22T08:44:01.278Z,100
2022-08-22T08:49:29.627Z,100
2022-08-22T08:55:10.539Z,100
2022-08-22T09:00:52.345Z,100
2022-08-22T09:06:25.906Z,100
2022-08-22T09:11:57.412Z,100
2022-08-22T09:17:37.610Z,100
2022-08-22T09:23:33.507Z,100
2022-08-22T09:28:51.025Z,100
2022-08-22T09:34:39.901Z,97
2022-08-22T09:40:15.785Z,100
2022-08-22T09:46:04.736Z,97
2022-08-22T09:51:37.282Z,96
2022-08-22T09:56:59.225Z,95
2022-08-22T10:03:01.382Z,92
2022-08-22T10:08:23.497Z,90
2022-08-22T10:13:57.640Z,87
2022-08-22T10:19:56.556Z,85
2022-08-22T10:25:14.146Z,84
2022-08-22T10:30:53.868Z,84
2022-08-22T10:36:53.227Z,81
2022-08-22T10:42:35.182Z,73
2022-08-22T10:47:58.327Z,63
2022-08-22T10:53:40.663Z,66
2022-08-22T10:59:27.366Z,62
2022-08-22T11:04:43.363Z,68
2022-08-22T11:10:45.617Z,66
2022-08-22T11:16:04.243Z,65
2022-08-22T11:21:47.840Z,55
2022-08-22T11:27:39.779Z,54
2022-08-22T11:32:57.940Z,53
2022-08-22T11:38:44.611Z,49
2022-08-22T11:44:29.744Z,51
2022-08-22T11:50:10.735Z,54
2022-08-22T11:55:47.469Z,52
2022-08-22T12:01:14.836Z,53
2022-08-22T12:06:54.424Z,52
2022-08-22T12:12:56.710Z,55
2022-08-22T12:18:20.102Z,54
2022-08-22T12:24:19.107Z,50
2022-08-22T12:29:48.262Z,49
2022-08-22T12:35:13.624Z,48
2022-08-22T12:41:04.089Z,43
2022-08-22T12:46:46.702Z,41
2022-08-22T12:52:25.382Z,44
2022-08-22T12:58:02.446Z,41
2022-08-22T13:03:33.596Z,40
2022-08-22T13:09:28.727Z,44
2022-08-22T13:14:44.600Z,42
2022-08-22T13:20:34.724Z,38
2022-08-22T13:26:32.121Z,37
2022-08-22T13:32:05.386Z,40
2022-08-22T13:37:40.393Z,39
2022-08-22T13:43:19.675Z,39
2022-08-22T13:48:45.060Z,43
2022-08-22T13:54:40.883Z,43
2022-08-22T14:00:19.641Z,43
2022-08-22T14:05:58.814Z,42
2022-08-22T14:11:38.412Z,43
2022-08-22T14:17:17.408Z,45
2022-08-22T14:22:52.930Z,45
2022-08-22T14:28:48.589Z,46
2022-08-22T14:34:27.609Z,43
2022-08-22T14:39:54.447Z,47
2022-08-22T14:45:47.540Z,44
2022-08-22T14:51:16.669Z,45
2022-08-22T14:56:50.302Z,47
2022-08-22T15:02:29.870Z,48
2022-08-22T15:08:17.210Z,48
2022-08-22T15:14:02.578Z,49
2022-08-22T15:19:26.372Z,50
2022-08-22T15:25:05.212Z,49
2022-08-22T15:30:45.320Z,47
2022-08-22T15:36:34.039Z,49
2022-08-22T15:42:16.951Z,48
2022-08-22T15:47:35.047Z,48
2022-08-22T15:53:30.095Z,48
2022-08-22T15:58:48.185Z,49
2022-08-22T16:04:23.897Z,48
2022-08-22T16:10:19.067Z,49
2022-08-22T16:15:48.661Z,50
2022-08-22T16:21:31.488Z,49
2022-08-22T16:27:01.160Z,46
2022-08-22T16:32:45.549Z,47
2022-08-22T16:43:52.635Z,47
2022-08-22T16:49:26.327Z,47
2022-08-22T16:55:16.028Z,50
2022-08-22T17:00:58.351Z,49
2022-08-22T17:06:21.650Z,46
2022-08-22T17:12:14.263Z,49
2022-08-22T17:17:45.338Z,51
2022-08-22T17:23:30.126Z,52
2022-08-22T17:28:49.854Z,55
2022-08-22T17:34:23.796Z,55
2022-08-22T17:40:15.980Z,56
2022-08-22T17:45:45.802Z,52
2022-08-22T17:51:37.989Z,50
2022-08-22T17:57:11.043Z,52
2022-08-22T18:02:48.419Z,50
2022-08-22T18:08:04.923Z,51
2022-08-22T18:14:05.143Z,51
2022-08-22T18:19:37.987Z,61
2022-08-22T18:24:52.042Z,80
2022-08-22T18:30:33.903Z,83
2022-08-22T18:36:10.515Z,96
2022-08-22T18:41:58.690Z,98
2022-08-22T18:47:12.359Z,97
2022-08-22T18:53:04.546Z,100
2022-08-22T18:58:38.272Z,100
2022-08-22T19:04:21.058Z,94
2022-08-22T19:09:52.815Z,90
2022-08-22T19:15:10.577Z,88
2022-08-22T19:21:06.385Z,100
2022-08-22T19:26:15.731Z,100
2022-08-22T19:32:02.319Z,91
2022-08-22T19:37:48.627Z,88
2022-08-22T19:43:26.453Z,94
2022-08-22T19:48:51.281Z,95
2022-08-22T19:54:30.902Z,93
2022-08-22T19:59:52.118Z,92
2022-08-22T20:05:27.039Z,94
2022-08-22T20:11:11.278Z,94
2022-08-22T20:16:45.979Z,96
2022-08-22T20:22:31.924Z,99
2022-08-22T20:27:55.001Z,97
2022-08-22T20:33:30.970Z,100
2022-08-22T20:39:21.867Z,100
2022-08-22T20:44:53.256Z,100
2022-08-22T20:50:30.194Z,100
2022-08-22T20:56:13.697Z,100
2022-08-22T21:01:32.438Z,100
2022-08-22T21:07:12.966Z,100
2022-08-22T21:13:02.554Z,100
2022-08-22T21:18:32.123Z,100
2022-08-22T21:24:08.863Z,100
2022-08-22T21:29:41.352Z,100
2022-08-22T21:35:19.869Z,100
2022-08-22T21:40:49.286Z,100
2022-08-22T21:46:21.319Z,100
2022-08-22T21:51:45.305Z,100
2022-08-22T21:57:37.198Z,100
2022-08-22T22:03:06.392Z,100
2022-08-22T22:08:55.948Z,100
2022-08-22T22:14:22.037Z,100
2022-08-22T22:19:49.106Z,100
2022-08-22T22:25:39.388Z,100
2022-08-22T22:31:11.858Z,100
2022-08-22T22:36:24.117Z,100
2022-08-22T22:42:22.035Z,100
2022-08-22T22:47:31.843Z,100
2022-08-22T22:53:37.944Z,100
2022-08-22T22:58:58.945Z,100
2022-08-22T23:04:41.361Z,100
2022-08-22T23:10:10.053Z,100
2022-08-22T23:15:51.955Z,100
2022-08-22T23:21:18.764Z,100
2022-08-22T23:26:59.897Z,100
2022-08-22T23:32:14.822Z,100
2022-08-22T23:38:02.773Z,100
2022-08-22T23:43:28.124Z,100
2022-08-22T23:49:06.723Z,100
2022-08-22T23:54:31.524Z,100
